Debert, Canada
Current Conditions -  °F | °C
As of 6:00 AM on Friday 31 Oct 2014 (Local Time) from CYHZ Reporting Station
Clear Clear  
Wind Chill: 34°   Ceiling: Unl
Heat Index: 39°   Visibility: 15mi
Dew Point: 36°   Wind: 7mph
Humidity: 87%   Direction: 340°NNW
Pressure: 29.97"   Gusts: NA
Location:  45.43°N, 63.45°W
Report Text: CYHZ 310900Z 34006KT 15SM SKC 04/02 A2997 RMK SLP153
Loading
Personal Weather Stations






























Interactive Weather Map
Tropical Storm Tracking
New forecast layout! Learn more

10-Day Weather Forecast

Advertisements
Track Severe Weather on mobile